createdAt,value
2022-09-15T00:20:46.608Z,142
2022-09-15T00:50:46.952Z,137
2022-09-15T01:20:42.648Z,135
2022-09-15T01:50:43.326Z,131
2022-09-15T02:20:39.024Z,123
2022-09-15T02:50:43.818Z,120
2022-09-15T03:20:47.125Z,118
2022-09-15T04:20:52.397Z,111
2022-09-15T04:50:53.077Z,110
2022-09-15T05:20:51.480Z,105
2022-09-15T05:50:48.634Z,105
2022-09-15T06:20:51.478Z,103
2022-09-15T06:50:49.327Z,102
2022-09-15T07:20:47.280Z,98
2022-09-15T07:50:51.109Z,96
2022-09-15T08:21:59.269Z,93
2022-09-15T08:51:57.369Z,92
2022-09-15T09:21:55.466Z,94
2022-09-15T09:51:53.607Z,394
2022-09-15T10:24:00.735Z,276
2022-09-15T10:53:54.169Z,246
2022-09-15T11:23:57.308Z,243
2022-09-15T11:53:58.707Z,232
2022-09-15T12:24:06.043Z,229
2022-09-15T12:54:09.840Z,225
2022-09-15T13:24:07.576Z,221
2022-09-15T13:54:12.339Z,214
2022-09-15T14:24:16.258Z,206
2022-09-15T14:54:20.262Z,202
2022-09-15T15:24:21.550Z,196
2022-09-15T15:54:24.573Z,191
2022-09-15T16:24:23.842Z,189
2022-09-15T16:54:21.320Z,183
2022-09-15T17:24:14.798Z,193
2022-09-15T17:54:08.448Z,182
2022-09-15T18:24:04.583Z,176
2022-09-15T18:54:05.182Z,171
2022-09-15T19:24:05.474Z,164
2022-09-15T19:54:04.297Z,164
2022-09-15T20:24:03.895Z,160
2022-09-15T20:54:07.444Z,155
2022-09-15T21:24:02.587Z,153
2022-09-15T21:54:01.352Z,150
2022-09-15T22:24:03.774Z,146
2022-09-15T22:54:07.574Z,144
2022-09-15T23:24:05.005Z,142
2022-09-15T23:54:04.871Z,139
